Time;durP1;ratioP1;P1;durP2;ratioP2;P2;SDS_P1;SDS_P2;PMS_P1;PMS_P2;Temp;Humidity;BMP_temperature;BMP_pressure;BME280_temperature;BME280_humidity;BME280_pressure;Samples;Min_cycle;Max_cycle;Signal;HPM_P1;HPM_P2
2023/01/10 00:01:57;;;;;;;0.00;0.00;;;3.80;99.90;;;;;;5100690;28;20044;-81
2023/01/10 00:04:25;;;;;;;0.35;0.35;;;3.80;99.90;;;;;;5101598;28;20119;-82
2023/01/10 00:06:51;;;;;;;0.00;0.00;;;3.70;99.90;;;;;;5101088;28;20418;-82
2023/01/10 00:09:16;;;;;;;0.00;0.00;;;3.70;99.90;;;;;;5101122;28;20041;-82
2023/01/10 00:14:28;;;;;;;0.43;0.43;;;3.50;99.90;;;;;;5100938;28;20048;-82
2023/01/10 00:16:53;;;;;;;3.10;0.95;;;3.50;99.90;;;;;;5098597;28;20044;-82
2023/01/10 00:19:19;;;;;;;0.00;0.00;;;3.40;99.90;;;;;;5099084;28;20127;-82
2023/01/10 00:21:45;;;;;;;0.03;0.03;;;3.40;99.90;;;;;;5098809;28;20070;-82
2023/01/10 00:24:29;;;;;;;3.72;0.65;;;3.50;99.90;;;;;;5098886;28;20032;-81
2023/01/10 00:26:54;;;;;;;0.52;0.52;;;3.50;99.90;;;;;;5099922;28;20043;-82
2023/01/10 00:29:26;;;;;;;0.10;0.10;;;3.60;99.90;;;;;;5099302;28;20040;-82
2023/01/10 00:31:52;;;;;;;0.55;0.55;;;3.60;99.90;;;;;;5099983;28;20121;-82
2023/01/10 00:34:18;;;;;;;17.63;2.60;;;3.60;99.90;;;;;;5099850;28;20438;-83
2023/01/10 00:36:46;;;;;;;13.05;2.05;;;3.70;99.90;;;;;;5099472;28;20060;-82
2023/01/10 00:39:12;;;;;;;0.30;0.30;;;3.70;99.90;;;;;;5099447;28;20048;-82
2023/01/10 00:44:24;;;;;;;0.22;0.22;;;3.80;99.90;;;;;;5083808;28;20070;-81
2023/01/10 00:46:51;;;;;;;0.75;0.75;;;3.90;99.90;;;;;;5105089;28;20032;-83
2023/01/10 00:49:16;;;;;;;0.25;0.25;;;4.00;99.90;;;;;;5104494;28;20052;-81
2023/01/10 00:51:42;;;;;;;1.65;0.82;;;4.10;99.90;;;;;;5104742;28;20054;-83
2023/01/10 00:54:09;;;;;;;0.10;0.10;;;4.10;99.90;;;;;;5105285;28;20072;-82
2023/01/10 00:56:35;;;;;;;0.32;0.30;;;4.10;99.90;;;;;;5104530;28;20040;-82
2023/01/10 00:59:00;;;;;;;0.03;0.03;;;4.10;99.90;;;;;;5105963;28;20123;-82
2023/01/10 01:01:26;;;;;;;9.18;0.68;;;4.10;99.90;;;;;;5100294;28;20048;-83
2023/01/10 01:03:52;;;;;;;0.10;0.10;;;4.00;99.90;;;;;;5084977;28;20395;-82
2023/01/10 01:06:17;;;;;;;0.00;0.00;;;4.10;99.90;;;;;;5086020;28;20523;-82
2023/01/10 01:08:43;;;;;;;0.63;0.63;;;4.10;99.90;;;;;;5104928;28;20036;-82
2023/01/10 01:11:08;;;;;;;0.10;0.10;;;4.20;99.90;;;;;;5104716;28;20044;-82
2023/01/10 01:13:35;;;;;;;2.88;2.65;;;4.30;99.90;;;;;;5105054;28;20103;-82
2023/01/10 01:16:01;;;;;;;0.00;0.00;;;4.40;99.90;;;;;;5104428;28;20047;-83
2023/01/10 01:18:27;;;;;;;0.88;0.40;;;4.50;99.90;;;;;;5103235;28;20044;-82
2023/01/10 01:20:59;;;;;;;0.08;0.08;;;4.60;99.90;;;;;;5104689;28;20384;-82
2023/01/10 01:23:24;;;;;;;0.20;0.20;;;4.60;99.90;;;;;;5104754;28;20064;-81
2023/01/10 01:25:54;;;;;;;0.10;0.10;;;4.60;99.90;;;;;;5105013;28;20066;-82
2023/01/10 01:28:20;;;;;;;0.05;0.05;;;4.60;99.90;;;;;;5105283;28;20044;-82
2023/01/10 01:30:47;;;;;;;0.10;0.10;;;4.70;99.90;;;;;;5104420;28;20055;-82
2023/01/10 01:33:12;;;;;;;0.20;0.20;;;4.70;99.90;;;;;;5104715;28;20032;-83
2023/01/10 01:35:42;;;;;;;0.00;0.00;;;4.80;99.90;;;;;;5105782;28;20169;-82
2023/01/10 01:38:08;;;;;;;0.00;0.00;;;5.00;99.90;;;;;;5104839;28;20036;-82
2023/01/10 01:40:33;;;;;;;0.20;0.20;;;5.10;99.90;;;;;;5105304;28;20079;-83
2023/01/10 01:42:59;;;;;;;0.10;0.10;;;5.10;99.90;;;;;;5105347;28;20044;-82
2023/01/10 01:45:33;;;;;;;0.10;0.10;;;5.10;99.90;;;;;;5105020;28;20067;-82
2023/01/10 01:48:11;;;;;;;0.00;0.00;;;5.10;99.90;;;;;;5102963;28;20070;-82
2023/01/10 01:50:44;;;;;;;0.32;0.32;;;5.00;99.90;;;;;;5103887;28;20115;-82
2023/01/10 01:53:15;;;;;;;0.55;0.55;;;4.80;99.90;;;;;;5103072;28;20044;-83
2023/01/10 01:55:42;;;;;;;0.30;0.30;;;4.70;99.90;;;;;;5104161;28;20114;-83
2023/01/10 01:58:13;;;;;;;0.08;0.08;;;4.50;99.90;;;;;;5104442;28;20093;-82
2023/01/10 02:00:38;;;;;;;3.72;2.13;;;4.40;99.90;;;;;;5103582;28;20051;-82
2023/01/10 02:03:05;;;;;;;0.00;0.00;;;4.30;99.90;;;;;;5103193;28;20040;-82
2023/01/10 02:05:33;;;;;;;0.00;0.00;;;4.30;99.90;;;;;;5103986;28;20452;-82
2023/01/10 02:08:01;;;;;;;0.00;0.00;;;4.30;99.90;;;;;;5103466;28;20040;-82
2023/01/10 02:10:47;;;;;;;0.08;0.08;;;4.20;99.90;;;;;;5103071;28;20044;-82
2023/01/10 02:13:14;;;;;;;;;;;4.20;99.90;;;;;;5102750;28;20071;-82
2023/01/10 02:15:40;;;;;;;;;;;4.80;99.90;;;;;;5103826;28;20007;-82
2023/01/10 02:18:06;;;;;;;0.00;0.00;;;4.10;99.90;;;;;;5102025;28;20391;-82
2023/01/10 02:20:56;;;;;;;11.05;1.95;;;4.00;99.90;;;;;;5102752;28;20150;-82
2023/01/10 02:23:47;;;;;;;1.20;0.63;;;4.00;99.90;;;;;;5108132;28;20409;-82
2023/01/10 02:26:31;;;;;;;0.00;0.00;;;4.00;99.90;;;;;;5109796;28;20047;-82
2023/01/10 02:29:09;;;;;;;0.20;0.20;;;4.00;99.90;;;;;;5101774;28;20535;-82
2023/01/10 02:32:08;;;;;;;0.00;0.00;;;3.90;99.90;;;;;;5102466;28;20047;-82
2023/01/10 02:35:11;;;;;;;0.00;0.00;;;4.00;99.90;;;;;;5102395;28;20460;-81
2023/01/10 02:37:58;;;;;;;0.03;0.03;;;4.00;99.90;;;;;;5101605;28;20065;-82
2023/01/10 02:40:46;;;;;;;0.47;0.47;;;4.00;99.90;;;;;;5102291;28;20036;-82
2023/01/10 02:43:17;;;;;;;3.47;1.45;;;4.00;99.90;;;;;;5101909;28;20127;-82
2023/01/10 02:46:14;;;;;;;0.00;0.00;;;3.90;99.90;;;;;;5102749;28;20564;-82
2023/01/10 02:48:39;;;;;;;0.30;0.30;;;3.90;99.90;;;;;;5101261;28;20554;-83
2023/01/10 02:51:28;;;;;;;0.55;0.55;;;3.90;99.90;;;;;;5101221;28;20149;-84
2023/01/10 02:54:00;;;;;;;0.00;0.00;;;4.00;99.90;;;;;;5102380;28;20051;-82
2023/01/10 02:56:32;;;;;;;0.75;0.75;;;4.10;99.90;;;;;;5102514;28;20495;-82
2023/01/10 02:59:09;;;;;;;0.17;0.17;;;4.20;99.90;;;;;;5101457;28;20048;-82
2023/01/10 03:01:48;;;;;;;0.00;0.00;;;4.20;99.90;;;;;;5102573;28;20043;-82
2023/01/10 03:04:38;;;;;;;0.20;0.20;;;4.20;99.90;;;;;;5089301;28;20048;-82
2023/01/10 03:07:30;;;;;;;0.00;0.00;;;4.30;99.90;;;;;;5102963;28;20093;-82
2023/01/10 03:10:14;;;;;;;1.75;0.95;;;4.40;99.90;;;;;;5082446;28;20056;-82
2023/01/10 03:12:58;;;;;;;0.00;0.00;;;4.40;99.90;;;;;;5095284;28;20040;-82
2023/01/10 03:15:28;;;;;;;0.10;0.10;;;4.40;99.90;;;;;;5102351;28;20565;-82
2023/01/10 03:17:57;;;;;;;5.40;1.88;;;4.30;99.90;;;;;;5101754;28;20507;-82
2023/01/10 03:20:23;;;;;;;0.00;0.00;;;4.20;99.90;;;;;;5101767;28;20395;-82
2023/01/10 03:22:51;;;;;;;0.75;0.75;;;4.20;99.90;;;;;;5101805;28;20483;-82
2023/01/10 03:25:23;;;;;;;0.00;0.00;;;4.10;99.90;;;;;;5102004;28;20047;-82
2023/01/10 03:28:01;;;;;;;0.10;0.10;;;4.10;99.90;;;;;;5101627;28;20052;-82
2023/01/10 03:30:44;;;;;;;2.90;0.73;;;4.10;99.90;;;;;;5101912;28;20108;-82
2023/01/10 03:33:12;;;;;;;0.08;0.08;;;4.20;99.90;;;;;;5101489;28;20482;-83
2023/01/10 03:36:17;;;;;;;0.20;0.20;;;4.10;99.90;;;;;;5101441;28;20036;-83
2023/01/10 03:38:58;;;;;;;0.08;0.08;;;4.10;99.90;;;;;;5101584;28;20372;-83
2023/01/10 03:41:39;;;;;;;0.00;0.00;;;4.20;99.90;;;;;;5102060;28;20372;-82
2023/01/10 03:47:30;;;;;;;0.00;0.00;;;4.30;99.90;;;;;;5101525;28;20074;-83
2023/01/10 03:50:05;;;;;;;0.43;0.43;;;4.50;99.90;;;;;;5101758;28;20059;-83
2023/01/10 03:52:33;;;;;;;3.20;2.08;;;4.60;99.90;;;;;;5102528;28;20055;-82
2023/01/10 03:54:59;;;;;;;1.27;0.75;;;4.60;99.90;;;;;;5102294;28;20036;-83
2023/01/10 03:57:26;;;;;;;0.10;0.10;;;4.60;99.90;;;;;;5101646;28;20134;-82
2023/01/10 03:59:56;;;;;;;0.00;0.00;;;4.70;99.90;;;;;;5101491;28;20044;-83
2023/01/10 04:02:26;;;;;;;0.00;0.00;;;4.80;99.90;;;;;;5101604;28;20113;-83
2023/01/10 04:04:52;;;;;;;2.30;1.00;;;4.90;99.90;;;;;;5102762;28;20119;-83
2023/01/10 04:07:17;;;;;;;0.00;0.00;;;4.90;99.90;;;;;;5101991;28;20079;-83
2023/01/10 04:09:43;;;;;;;1.00;0.95;;;4.80;99.90;;;;;;5101665;28;20044;-83
2023/01/10 04:12:09;;;;;;;0.43;0.43;;;4.70;99.90;;;;;;5101090;28;20549;-83
2023/01/10 04:14:35;;;;;;;0.90;0.45;;;4.70;99.90;;;;;;5101838;28;20044;-83
2023/01/10 04:17:00;;;;;;;0.38;0.38;;;4.70;99.90;;;;;;5104585;28;20036;-83
2023/01/10 04:19:26;;;;;;;1.38;1.27;;;4.70;99.90;;;;;;5105818;28;20036;-83
2023/01/10 04:21:52;;;;;;;0.00;0.00;;;4.70;99.90;;;;;;5106210;28;20052;-83
2023/01/10 04:24:17;;;;;;;1.35;0.65;;;4.60;99.90;;;;;;5106441;28;20043;-83
2023/01/10 04:26:43;;;;;;;0.25;0.25;;;4.50;99.90;;;;;;5105365;28;20036;-83
2023/01/10 04:29:09;;;;;;;0.00;0.00;;;4.50;99.90;;;;;;5105511;28;20047;-83
2023/01/10 04:31:35;;;;;;;0.35;0.35;;;4.40;99.90;;;;;;5105979;28;20100;-82
2023/01/10 04:34:01;;;;;;;0.17;0.17;;;4.40;99.90;;;;;;5106165;28;20067;-83
2023/01/10 04:36:26;;;;;;;0.20;0.20;;;4.30;99.90;;;;;;5106210;28;20043;-83
2023/01/10 04:38:52;;;;;;;0.00;0.00;;;4.30;99.90;;;;;;5104644;28;20535;-83
2023/01/10 04:41:18;;;;;;;0.00;0.00;;;4.40;99.90;;;;;;5105042;28;20200;-82
2023/01/10 04:43:43;;;;;;;3.97;1.55;;;4.40;99.90;;;;;;5104756;28;20036;-83
2023/01/10 04:46:09;;;;;;;1.35;1.00;;;4.50;99.90;;;;;;5105337;28;20499;-82
2023/01/10 04:48:36;;;;;;;0.00;0.00;;;4.50;99.90;;;;;;5104378;28;20048;-83
2023/01/10 04:51:02;;;;;;;0.05;0.05;;;4.50;99.90;;;;;;5105488;28;20059;-82
2023/01/10 04:53:27;;;;;;;0.15;0.15;;;4.50;99.90;;;;;;5104898;28;20040;-82
2023/01/10 04:55:53;;;;;;;0.13;0.13;;;4.50;99.90;;;;;;5104198;28;20066;-83
2023/01/10 04:58:20;;;;;;;3.05;1.10;;;4.40;99.90;;;;;;5104675;28;20099;-82
2023/01/10 05:00:45;;;;;;;0.05;0.05;;;4.50;99.90;;;;;;5104354;28;20480;-82
2023/01/10 05:03:11;;;;;;;0.00;0.00;;;4.60;99.90;;;;;;5105074;28;20101;-82
2023/01/10 05:05:36;;;;;;;7.47;0.73;;;4.60;99.90;;;;;;5105163;28;20043;-83
2023/01/10 05:08:02;;;;;;;0.00;0.00;;;4.70;99.90;;;;;;5104989;28;20036;-84
2023/01/10 05:10:28;;;;;;;0.00;0.00;;;4.80;99.90;;;;;;5104815;28;20091;-83
2023/01/10 05:12:53;;;;;;;0.38;0.38;;;4.90;99.90;;;;;;5104452;28;20066;-83
2023/01/10 05:15:20;;;;;;;1.20;1.00;;;5.00;99.90;;;;;;5105248;28;20044;-83
2023/01/10 05:17:45;;;;;;;0.00;0.00;;;5.10;99.90;;;;;;5105480;28;20040;-83
2023/01/10 05:20:12;;;;;;;0.55;0.55;;;5.10;99.90;;;;;;5104933;28;20073;-83
2023/01/10 05:22:38;;;;;;;0.20;0.20;;;5.10;99.90;;;;;;5104833;28;20087;-82
2023/01/10 05:25:05;;;;;;;0.43;0.43;;;5.10;99.90;;;;;;5104735;28;20048;-82
2023/01/10 05:27:30;;;;;;;0.00;0.00;;;5.10;99.90;;;;;;5104823;28;20068;-82
2023/01/10 05:29:56;;;;;;;3.65;0.65;;;5.10;99.90;;;;;;5105583;28;20044;-83
2023/01/10 05:32:22;;;;;;;0.20;0.15;;;5.10;99.90;;;;;;5105481;28;20028;-84
2023/01/10 05:34:47;;;;;;;0.68;0.68;;;5.10;99.90;;;;;;5103555;28;20040;-82
2023/01/10 05:37:13;;;;;;;0.20;0.20;;;5.10;99.90;;;;;;5105522;28;20040;-82
2023/01/10 05:39:40;;;;;;;0.30;0.30;;;5.10;99.90;;;;;;5105704;28;20044;-82
2023/01/10 05:42:05;;;;;;;0.00;0.00;;;5.20;99.90;;;;;;5105510;28;20036;-82
2023/01/10 05:44:31;;;;;;;0.17;0.17;;;5.20;99.90;;;;;;5105029;28;20040;-82
2023/01/10 05:46:57;;;;;;;0.35;0.35;;;5.30;99.90;;;;;;5104209;28;20066;-82
2023/01/10 05:49:22;;;;;;;0.13;0.13;;;5.30;99.90;;;;;;5104301;28;20109;-82
2023/01/10 05:51:48;;;;;;;0.00;0.00;;;5.40;99.90;;;;;;5104122;28;20044;-82
2023/01/10 05:54:14;;;;;;;0.00;0.00;;;5.40;99.90;;;;;;5104813;28;20040;-82
2023/01/10 05:56:39;;;;;;;0.65;0.65;;;5.50;99.90;;;;;;5102927;28;20036;-83
2023/01/10 05:59:05;;;;;;;0.45;0.45;;;5.40;99.90;;;;;;5103883;28;20036;-82
2023/01/10 06:01:30;;;;;;;0.63;0.47;;;5.30;99.90;;;;;;5102840;28;20040;-82
2023/01/10 06:03:56;;;;;;;0.00;0.00;;;5.40;99.90;;;;;;5105036;28;20036;-82
2023/01/10 06:06:22;;;;;;;0.57;0.55;;;5.40;99.90;;;;;;5103455;28;20047;-82
2023/01/10 06:08:47;;;;;;;0.75;0.35;;;5.50;99.90;;;;;;5097930;28;20070;-83
2023/01/10 06:11:14;;;;;;;0.00;0.00;;;5.60;99.90;;;;;;5095190;28;20040;-83
2023/01/10 06:13:39;;;;;;;0.00;0.00;;;5.60;99.90;;;;;;5097573;28;20058;-83
2023/01/10 06:16:05;;;;;;;0.00;0.00;;;5.60;99.90;;;;;;5100417;28;20032;-83
2023/01/10 06:18:31;;;;;;;2.15;1.05;;;5.60;99.90;;;;;;5100566;28;20036;-82
2023/01/10 06:20:56;;;;;;;0.40;0.40;;;5.60;99.90;;;;;;5100557;28;20048;-83
2023/01/10 06:23:22;;;;;;;0.22;0.22;;;5.60;99.90;;;;;;5100807;28;20064;-83
2023/01/10 06:25:47;;;;;;;0.00;0.00;;;5.60;99.90;;;;;;5099310;28;20044;-82
2023/01/10 06:28:13;;;;;;;0.98;0.98;;;5.60;99.90;;;;;;5102184;28;20040;-82
2023/01/10 06:30:42;;;;;;;0.00;0.00;;;5.60;99.90;;;;;;5102438;28;20380;-83
2023/01/10 06:33:08;;;;;;;1.92;0.08;;;5.60;99.90;;;;;;5103120;28;20072;-82
2023/01/10 06:35:35;;;;;;;1.95;1.85;;;5.70;99.90;;;;;;5102650;28;20036;-82
2023/01/10 06:38:01;;;;;;;0.52;0.52;;;5.70;99.90;;;;;;5103090;28;20103;-83
2023/01/10 06:40:27;;;;;;;1.92;0.85;;;5.60;99.90;;;;;;5100891;28;20076;-83
2023/01/10 06:42:53;;;;;;;0.00;0.00;;;5.60;99.90;;;;;;5102585;28;20028;-83
2023/01/10 06:45:18;;;;;;;0.17;0.17;;;5.60;99.90;;;;;;5102739;28;20047;-83
2023/01/10 06:47:44;;;;;;;1.58;1.30;;;5.60;99.90;;;;;;5104032;28;20047;-83
2023/01/10 06:50:11;;;;;;;3.40;0.50;;;5.60;99.90;;;;;;5104191;28;20072;-82
2023/01/10 06:52:37;;;;;;;4.85;1.35;;;5.60;99.90;;;;;;5103135;28;20179;-82
2023/01/10 06:55:04;;;;;;;6.97;1.08;;;5.60;99.90;;;;;;5103427;28;20491;-83
2023/01/10 06:57:32;;;;;;;0.00;0.00;;;5.50;99.90;;;;;;5103627;28;20040;-83
2023/01/10 06:59:58;;;;;;;1.45;0.90;;;5.40;99.90;;;;;;5102807;28;20048;-83
2023/01/10 07:02:23;;;;;;;1.05;1.00;;;5.20;99.90;;;;;;5102261;28;20040;-82
2023/01/10 07:04:49;;;;;;;0.10;0.10;;;5.10;99.90;;;;;;5102516;28;20032;-82
2023/01/10 07:07:15;;;;;;;0.20;0.20;;;4.90;99.90;;;;;;5102429;28;20428;-82
2023/01/10 07:09:40;;;;;;;0.00;0.00;;;4.80;99.90;;;;;;5102448;28;20070;-82
2023/01/10 07:12:06;;;;;;;0.35;0.25;;;4.80;99.90;;;;;;5101896;28;20036;-82
2023/01/10 07:14:32;;;;;;;0.00;0.00;;;4.70;99.90;;;;;;5102753;28;20046;-82
2023/01/10 07:16:58;;;;;;;0.10;0.10;;;4.60;99.90;;;;;;5102353;28;20399;-82
2023/01/10 07:19:23;;;;;;;0.00;0.00;;;4.70;99.90;;;;;;5102390;28;20048;-82
2023/01/10 07:21:49;;;;;;;0.10;0.10;;;4.90;99.90;;;;;;5102254;28;20083;-82
2023/01/10 07:24:14;;;;;;;0.10;0.10;;;5.00;99.90;;;;;;5102432;28;20054;-82
2023/01/10 07:26:40;;;;;;;0.10;0.10;;;5.10;99.90;;;;;;5103041;28;20040;-82
2023/01/10 07:29:06;;;;;;;0.38;0.38;;;5.20;99.90;;;;;;5102641;28;20098;-82
2023/01/10 07:31:31;;;;;;;0.28;0.25;;;5.30;99.90;;;;;;5102309;28;20043;-82
2023/01/10 07:33:57;;;;;;;0.28;0.28;;;5.40;99.90;;;;;;5102382;28;20106;-82
2023/01/10 07:36:22;;;;;;;0.65;0.65;;;5.50;99.90;;;;;;5102130;28;20048;-82
2023/01/10 07:38:48;;;;;;;0.35;0.30;;;5.50;99.90;;;;;;5101991;28;20227;-83
2023/01/10 07:41:13;;;;;;;0.13;0.13;;;5.50;99.90;;;;;;5099445;28;20094;-83
2023/01/10 07:43:39;;;;;;;0.50;0.30;;;5.50;99.90;;;;;;5099577;28;20032;-82
2023/01/10 07:46:08;;;;;;;0.10;0.10;;;5.50;99.90;;;;;;5099425;28;20048;-82
2023/01/10 07:48:35;;;;;;;0.17;0.17;;;5.50;99.90;;;;;;5098874;28;20084;-82
2023/01/10 07:51:01;;;;;;;0.00;0.00;;;5.40;99.90;;;;;;5101942;28;20085;-82
2023/01/10 07:53:28;;;;;;;0.10;0.10;;;5.40;99.90;;;;;;5103295;28;20468;-82
2023/01/10 07:55:57;;;;;;;2.28;1.00;;;5.30;99.90;;;;;;5103989;28;20050;-83
2023/01/10 07:58:23;;;;;;;0.22;0.20;;;5.40;99.90;;;;;;5103181;28;20048;-82
2023/01/10 08:00:49;;;;;;;1.05;0.95;;;5.40;99.90;;;;;;5104265;28;20044;-82
2023/01/10 08:03:16;;;;;;;0.00;0.00;;;5.40;99.90;;;;;;5103019;28;20180;-82
2023/01/10 08:05:42;;;;;;;1.40;0.95;;;5.40;99.90;;;;;;5103565;28;20048;-83
2023/01/10 08:08:09;;;;;;;0.90;0.85;;;5.40;99.90;;;;;;5091868;28;20070;-83
2023/01/10 08:10:37;;;;;;;0.10;0.10;;;5.40;99.90;;;;;;5102945;28;20047;-82
2023/01/10 08:13:03;;;;;;;27.75;0.98;;;5.40;99.90;;;;;;5103604;28;20059;-83
2023/01/10 08:15:29;;;;;;;0.05;0.05;;;5.50;99.90;;;;;;5101460;28;20044;-82
2023/01/10 08:17:58;;;;;;;0.30;0.20;;;5.50;99.90;;;;;;5101834;28;20040;-82
2023/01/10 08:20:23;;;;;;;0.77;0.75;;;5.50;99.90;;;;;;5102095;28;20048;-83
2023/01/10 08:22:49;;;;;;;0.57;0.45;;;5.40;99.90;;;;;;5103114;28;20040;-82
2023/01/10 08:25:14;;;;;;;0.00;0.00;;;5.40;99.90;;;;;;5103511;28;20415;-82
2023/01/10 08:27:40;;;;;;;1.15;1.13;;;5.40;99.90;;;;;;5101770;28;20048;-82
2023/01/10 08:30:06;;;;;;;0.25;0.25;;;5.40;99.90;;;;;;5101925;28;20530;-82
2023/01/10 08:32:32;;;;;;;0.05;0.05;;;5.50;99.90;;;;;;5101452;28;20312;-82
2023/01/10 08:34:57;;;;;;;2.15;0.90;;;5.50;99.90;;;;;;5101043;28;20036;-83
2023/01/10 08:37:23;;;;;;;0.00;0.00;;;5.60;99.90;;;;;;5101726;28;20109;-82
2023/01/10 08:39:49;;;;;;;2.45;1.02;;;5.60;99.90;;;;;;5102998;28;20047;-82
2023/01/10 08:42:15;;;;;;;0.45;0.45;;;5.70;99.90;;;;;;5101955;28;20044;-83
2023/01/10 08:44:41;;;;;;;3.10;1.02;;;5.60;99.90;;;;;;5102443;28;20051;-82
2023/01/10 08:47:07;;;;;;;0.00;0.00;;;5.40;99.90;;;;;;5103657;28;20036;-82
2023/01/10 08:49:32;;;;;;;0.57;0.57;;;5.30;99.90;;;;;;5104595;28;20279;-83
2023/01/10 08:51:59;;;;;;;0.08;0.08;;;5.30;99.90;;;;;;5101487;28;20043;-82
2023/01/10 08:54:25;;;;;;;0.22;0.22;;;5.20;99.90;;;;;;5103278;28;20135;-82
2023/01/10 08:56:50;;;;;;;0.28;0.28;;;5.20;99.90;;;;;;5103791;28;20044;-82
2023/01/10 08:59:16;;;;;;;0.00;0.00;;;5.20;99.90;;;;;;5103409;28;20032;-83
2023/01/10 09:01:42;;;;;;;1.90;1.77;;;5.40;99.90;;;;;;5103758;28;20044;-82
2023/01/10 09:04:07;;;;;;;1.00;0.20;;;5.40;99.90;;;;;;5104645;28;20051;-82
2023/01/10 09:06:33;;;;;;;2.13;1.25;;;5.50;99.90;;;;;;5104676;28;20097;-82
2023/01/10 09:08:58;;;;;;;0.00;0.00;;;5.50;99.90;;;;;;5105460;28;20047;-82
2023/01/10 09:11:24;;;;;;;0.10;0.10;;;5.70;99.90;;;;;;5104427;28;20044;-82
2023/01/10 09:13:50;;;;;;;0.85;0.20;;;5.80;99.90;;;;;;5104713;28;20110;-82
2023/01/10 09:16:16;;;;;;;0.17;0.17;;;6.00;99.90;;;;;;5104546;28;20445;-82
2023/01/10 09:18:42;;;;;;;0.20;0.20;;;6.10;99.90;;;;;;5104781;28;20044;-82
2023/01/10 09:21:08;;;;;;;0.40;0.40;;;6.30;99.90;;;;;;5104981;28;20093;-82
2023/01/10 09:23:33;;;;;;;0.05;0.05;;;6.20;99.90;;;;;;5105229;28;20047;-82
2023/01/10 09:25:59;;;;;;;0.00;0.00;;;6.20;99.90;;;;;;5104859;28;20070;-82
2023/01/10 09:28:25;;;;;;;0.00;0.00;;;6.20;99.90;;;;;;5104804;28;20491;-82
2023/01/10 09:30:51;;;;;;;0.00;0.00;;;6.20;99.90;;;;;;5104022;28;20043;-82
2023/01/10 09:33:17;;;;;;;1.30;1.13;;;6.20;99.90;;;;;;5103936;28;20032;-82
2023/01/10 09:35:43;;;;;;;6.32;1.55;;;6.20;99.90;;;;;;5105114;28;20043;-82
2023/01/10 09:38:17;;;;;;;3.30;1.60;;;6.30;99.90;;;;;;5103975;28;20036;-83
2023/01/10 09:40:52;;;;;;;0.17;0.17;;;6.30;99.90;;;;;;5104188;28;20095;-82
2023/01/10 09:43:48;;;;;;;1.42;0.73;;;6.40;99.90;;;;;;5104311;28;20047;-82
2023/01/10 09:46:39;;;;;;;0.27;0.27;;;6.40;99.90;;;;;;5104445;28;20044;-82
2023/01/10 09:49:17;;;;;;;0.00;0.00;;;6.40;99.90;;;;;;5104446;28;20062;-82
2023/01/10 09:51:47;;;;;;;0.17;0.17;;;6.50;99.90;;;;;;5103348;28;20043;-82
2023/01/10 09:54:25;;;;;;;0.00;0.00;;;6.50;99.90;;;;;;5104271;28;20035;-82
2023/01/10 09:56:52;;;;;;;1.00;0.95;;;6.50;99.90;;;;;;5103516;28;20096;-82
2023/01/10 09:59:22;;;;;;;0.10;0.10;;;6.50;99.90;;;;;;5104172;28;20040;-82
2023/01/10 10:01:58;;;;;;;0.88;0.15;;;6.50;99.90;;;;;;5104235;28;20039;-82
2023/01/10 10:04:33;;;;;;;0.22;0.22;;;6.50;99.90;;;;;;5104380;28;20099;-82
2023/01/10 10:06:59;;;;;;;0.00;0.00;;;6.50;99.90;;;;;;5105109;28;20044;-83
2023/01/10 10:09:28;;;;;;;0.55;0.55;;;6.50;99.90;;;;;;5110920;28;20137;-83
2023/01/10 10:12:04;;;;;;;1.38;1.27;;;6.40;99.90;;;;;;5108195;28;20570;-83
2023/01/10 10:14:53;;;;;;;0.00;0.00;;;6.70;99.90;;;;;;5103607;28;20048;-82
2023/01/10 10:17:26;;;;;;;0.32;0.32;;;6.40;99.90;;;;;;5103724;28;20119;-82
2023/01/10 10:20:16;;;;;;;0.57;0.57;;;6.40;99.90;;;;;;5103005;28;20055;-82
2023/01/10 10:22:44;;;;;;;0.03;0.03;;;6.40;99.90;;;;;;5103225;28;20048;-82
2023/01/10 10:25:21;;;;;;;1.05;0.88;;;6.50;99.90;;;;;;5102111;28;20060;-83
2023/01/10 10:28:04;;;;;;;0.20;0.20;;;6.50;99.90;;;;;;5101097;28;20063;-83
2023/01/10 10:30:35;;;;;;;0.57;0.50;;;6.60;99.90;;;;;;5101244;28;20099;-82
2023/01/10 10:33:26;;;;;;;1.13;0.88;;;6.60;99.90;;;;;;5100967;28;20059;-82
2023/01/10 10:36:23;;;;;;;0.00;0.00;;;6.60;99.90;;;;;;5101124;28;20495;-82
2023/01/10 10:38:52;;;;;;;0.65;0.65;;;6.70;99.90;;;;;;5095759;28;20056;-82
2023/01/10 10:41:32;;;;;;;0.17;0.17;;;6.80;99.90;;;;;;5101243;28;20043;-82
2023/01/10 10:44:03;;;;;;;0.20;0.20;;;6.80;99.90;;;;;;5101301;28;20127;-83
2023/01/10 10:46:30;;;;;;;0.05;0.05;;;6.80;99.90;;;;;;5100136;28;20044;-82
2023/01/10 10:49:01;;;;;;;4.80;1.92;;;6.90;99.90;;;;;;5100450;28;20055;-83
2023/01/10 10:51:38;;;;;;;0.30;0.30;;;6.90;99.90;;;;;;5101224;28;20059;-83
2023/01/10 10:54:06;;;;;;;0.68;0.60;;;6.90;99.90;;;;;;5100868;28;20499;-83
2023/01/10 10:56:32;;;;;;;0.00;0.00;;;6.90;99.90;;;;;;5100074;28;20075;-83
2023/01/10 10:58:59;;;;;;;5.47;3.30;;;7.00;99.90;;;;;;5100420;28;20101;-83
2023/01/10 11:01:25;;;;;;;13.85;2.05;;;7.00;99.90;;;;;;5100069;28;20055;-83
2023/01/10 11:04:08;;;;;;;2.58;1.25;;;7.00;99.90;;;;;;5100334;28;20093;-82
2023/01/10 11:06:35;;;;;;;2.10;1.25;;;7.00;99.90;;;;;;5102695;28;20518;-83
2023/01/10 11:09:03;;;;;;;0.60;0.60;;;7.00;99.90;;;;;;5103254;28;20070;-83
2023/01/10 11:11:33;;;;;;;10.32;0.65;;;7.00;99.90;;;;;;5102577;28;20040;-83
2023/01/10 11:14:04;;;;;;;0.40;0.40;;;7.10;99.90;;;;;;5102789;28;20044;-83
2023/01/10 11:16:30;;;;;;;0.28;0.28;;;7.10;99.90;;;;;;5103160;28;20084;-83
2023/01/10 11:19:20;;;;;;;0.00;0.00;;;7.20;99.90;;;;;;5100905;28;20625;-82
2023/01/10 11:21:55;;;;;;;6.13;1.60;;;7.20;99.90;;;;;;5099435;28;20048;-83
2023/01/10 11:24:28;;;;;;;25.27;1.38;;;7.20;99.90;;;;;;5099883;28;20504;-83
2023/01/10 11:26:56;;;;;;;5.60;2.45;;;7.20;99.90;;;;;;5099734;28;20056;-82
2023/01/10 11:29:35;;;;;;;1.20;1.10;;;7.20;99.90;;;;;;5097937;28;20060;-82
2023/01/10 11:32:14;;;;;;;0.30;0.30;;;7.10;99.90;;;;;;5099550;28;20036;-82
2023/01/10 11:34:41;;;;;;;0.22;0.20;;;7.20;99.90;;;;;;5099434;28;20040;-83
2023/01/10 11:37:15;;;;;;;0.00;0.00;;;7.10;99.90;;;;;;5099002;28;20449;-83
2023/01/10 11:39:41;;;;;;;0.10;0.10;;;7.10;99.90;;;;;;5098103;28;20070;-83
2023/01/10 11:42:28;;;;;;;0.30;0.30;;;7.10;99.90;;;;;;5096193;28;20495;-82
2023/01/10 11:45:14;;;;;;;0.55;0.30;;;7.10;99.90;;;;;;5100198;28;20052;-82
2023/01/10 11:47:43;;;;;;;2.05;1.10;;;7.10;99.90;;;;;;5088290;28;20059;-83
2023/01/10 11:50:10;;;;;;;1.92;0.90;;;7.10;99.90;;;;;;5098937;28;20109;-82
2023/01/10 11:52:42;;;;;;;0.82;0.82;;;7.00;99.90;;;;;;5099961;28;20055;-82
2023/01/10 11:55:08;;;;;;;1.00;0.82;;;7.00;99.90;;;;;;5100157;28;20100;-82
2023/01/10 11:57:33;;;;;;;0.38;0.38;;;7.00;99.90;;;;;;5100680;28;20529;-83
2023/01/10 12:00:06;;;;;;;16.45;2.45;;;7.00;99.90;;;;;;5101522;28;20032;-83
2023/01/10 12:02:51;;;;;;;1.20;1.10;;;7.00;99.90;;;;;;5101272;28;20048;-83
2023/01/10 12:05:19;;;;;;;0.00;0.00;;;7.00;99.90;;;;;;5101479;28;20098;-83
2023/01/10 12:08:04;;;;;;;1.83;1.50;;;7.00;99.90;;;;;;5101167;28;20064;-83
2023/01/10 12:10:30;;;;;;;0.10;0.10;;;7.00;99.90;;;;;;5100404;28;20040;-82
2023/01/10 12:13:26;;;;;;;1.63;0.95;;;7.00;99.90;;;;;;5100870;28;20052;-83
2023/01/10 12:16:17;;;;;;;0.20;0.20;;;7.10;99.90;;;;;;5098216;28;20077;-83
2023/01/10 12:18:43;;;;;;;2.05;0.82;;;7.00;99.90;;;;;;5100824;28;20091;-83
2023/01/10 12:21:12;;;;;;;4.90;2.45;;;7.00;99.90;;;;;;5100863;28;20044;-82
2023/01/10 12:23:40;;;;;;;0.43;0.43;;;7.00;99.90;;;;;;5100331;28;20133;-84
2023/01/10 12:26:07;;;;;;;0.43;0.43;;;6.90;99.90;;;;;;5099957;28;20037;-83
2023/01/10 12:28:35;;;;;;;0.20;0.20;;;6.90;99.90;;;;;;5098770;28;20052;-83
2023/01/10 12:31:04;;;;;;;0.10;0.10;;;6.90;99.90;;;;;;5100656;28;20109;-83
2023/01/10 12:33:35;;;;;;;0.20;0.20;;;6.80;99.90;;;;;;5099616;28;20054;-83
2023/01/10 12:36:07;;;;;;;0.00;0.00;;;6.80;99.90;;;;;;5097100;28;20073;-83
2023/01/10 12:44:41;;;;;;;0.75;0.75;;;6.90;99.90;;;;;;5103677;28;20040;-83
2023/01/10 12:47:19;;;;;;;3.72;1.67;;;6.90;99.90;;;;;;5101876;28;20055;-83
2023/01/10 12:49:59;;;;;;;0.52;0.52;;;7.00;99.90;;;;;;5102497;28;20060;-83
2023/01/10 12:52:41;;;;;;;0.10;0.10;;;7.00;30.60;;;;;;5102703;28;20063;-82
2023/01/10 12:55:23;;;;;;;1.92;0.68;;;7.00;99.90;;;;;;5103267;28;20478;-83
2023/01/10 12:57:52;;;;;;;0.00;0.00;;;7.10;1.00;;;;;;5101886;28;20044;-83
2023/01/10 13:00:29;;;;;;;1.92;1.60;;;7.00;1.00;;;;;;5102613;28;20043;-82
2023/01/10 13:02:58;;;;;;;0.00;0.00;;;7.00;1.00;;;;;;5102700;28;20044;-83
2023/01/10 13:05:27;;;;;;;0.00;0.00;;;7.10;99.90;;;;;;5102575;28;20047;-83
2023/01/10 13:08:06;;;;;;;0.90;0.75;;;7.00;99.90;;;;;;5102139;28;20364;-82
2023/01/10 13:10:38;;;;;;;0.00;0.00;;;7.00;99.90;;;;;;5102341;28;20128;-82
2023/01/10 13:13:09;;;;;;;0.00;0.00;;;7.00;1.00;;;;;;5102429;28;20062;-83
2023/01/10 13:15:40;;;;;;;2.40;0.55;;;7.00;1.00;;;;;;5102331;28;20048;-83
2023/01/10 13:18:27;;;;;;;0.47;0.47;;;6.90;1.00;;;;;;5102741;28;20043;-83
2023/01/10 13:21:18;;;;;;;4.47;1.63;;;6.90;99.90;;;;;;5101736;28;20048;-83
2023/01/10 13:23:49;;;;;;;0.22;0.22;;;7.00;99.90;;;;;;5099290;28;20059;-83
2023/01/10 13:26:15;;;;;;;2.20;1.08;;;7.00;99.90;;;;;;5100972;28;20040;-82
2023/01/10 13:28:59;;;;;;;0.65;0.65;;;7.00;99.90;;;;;;5099535;28;20104;-82